createdAt,value
2018-09-17T00:01:35.562Z,15.64
2018-09-17T00:04:59.993Z,15.53
2018-09-17T00:08:24.420Z,15.46
2018-09-17T00:11:48.872Z,15.49
2018-09-17T00:15:13.337Z,15.36
2018-09-17T00:18:37.774Z,15.37
2018-09-17T00:22:02.219Z,15.27
2018-09-17T00:25:26.820Z,15.29
2018-09-17T00:28:51.326Z,15.21
2018-09-17T00:32:15.741Z,15.26
2018-09-17T00:35:40.209Z,15.18
2018-09-17T00:39:06.657Z,15.21
2018-09-17T00:42:31.104Z,15.16
2018-09-17T00:45:55.598Z,15.04
2018-09-17T00:49:20.003Z,15.04
2018-09-17T00:52:44.509Z,15.07
2018-09-17T00:56:08.985Z,14.93
2018-09-17T00:59:33.420Z,14.96
2018-09-17T01:02:57.858Z,14.94
2018-09-17T01:06:22.356Z,14.95
2018-09-17T01:09:46.800Z,15.00
2018-09-17T01:13:11.216Z,14.89
2018-09-17T01:16:35.634Z,14.93
2018-09-17T01:20:00.033Z,14.86
2018-09-17T01:23:24.459Z,14.82
2018-09-17T01:26:48.869Z,14.78
2018-09-17T01:30:13.319Z,14.86
2018-09-17T01:33:37.772Z,14.74
2018-09-17T01:37:02.213Z,14.75
2018-09-17T01:40:26.641Z,14.81
2018-09-17T01:43:51.081Z,14.85
2018-09-17T01:47:15.512Z,15.13
2018-09-17T01:50:39.912Z,15.22
2018-09-17T01:54:04.477Z,15.27
2018-09-17T01:57:29.615Z,15.43
2018-09-17T02:00:54.044Z,15.30
2018-09-17T02:04:18.492Z,15.49
2018-09-17T02:07:42.960Z,15.74
2018-09-17T02:11:07.419Z,15.79
2018-09-17T02:14:31.859Z,15.79
2018-09-17T02:17:56.284Z,16.02
2018-09-17T02:21:20.738Z,16.00
2018-09-17T02:24:45.211Z,16.05
2018-09-17T02:28:09.617Z,16.16
2018-09-17T02:31:34.054Z,16.08
2018-09-17T02:34:58.507Z,16.12
2018-09-17T02:38:22.879Z,16.09
2018-09-17T02:41:47.315Z,16.10
2018-09-17T02:45:11.768Z,16.16
2018-09-17T02:48:36.319Z,15.96
2018-09-17T02:52:00.753Z,15.82
2018-09-17T02:55:25.237Z,15.71
2018-09-17T02:58:49.736Z,15.65
2018-09-17T03:02:14.126Z,15.49
2018-09-17T03:05:38.618Z,15.57
2018-09-17T03:09:03.153Z,15.51
2018-09-17T03:12:27.604Z,15.62
2018-09-17T03:15:55.033Z,15.38
2018-09-17T03:19:19.479Z,15.32
2018-09-17T03:22:43.928Z,15.33
2018-09-17T03:26:08.403Z,15.46
2018-09-17T03:29:32.841Z,15.46
2018-09-17T03:32:57.395Z,15.33
2018-09-17T03:36:21.824Z,15.19
2018-09-17T03:39:46.236Z,15.19
2018-09-17T03:43:10.657Z,14.95
2018-09-17T03:46:35.152Z,14.91
2018-09-17T03:49:59.521Z,14.90
2018-09-17T03:53:23.939Z,14.92
2018-09-17T03:56:48.428Z,14.90
2018-09-17T04:00:12.832Z,14.95
2018-09-17T04:03:37.278Z,14.99
2018-09-17T04:07:01.700Z,15.01
2018-09-17T04:10:32.259Z,14.89
2018-09-17T04:13:56.790Z,14.83
2018-09-17T04:17:21.226Z,14.81
2018-09-17T04:20:45.671Z,14.67
2018-09-17T04:24:10.088Z,14.61
2018-09-17T04:27:34.544Z,14.56
2018-09-17T04:32:36.561Z,14.66
2018-09-17T04:36:01.005Z,14.75
2018-09-17T04:39:26.674Z,14.69
2018-09-17T04:42:51.074Z,14.62
2018-09-17T04:46:15.568Z,14.76
2018-09-17T04:49:40.068Z,15.00
2018-09-17T04:53:04.660Z,15.02
2018-09-17T04:56:29.203Z,14.75
2018-09-17T04:59:54.085Z,14.95
2018-09-17T05:03:18.563Z,15.07
2018-09-17T05:06:43.227Z,15.05
2018-09-17T05:10:07.983Z,14.94
2018-09-17T05:13:32.498Z,14.99
2018-09-17T05:16:56.951Z,15.04
2018-09-17T05:20:21.400Z,15.06
2018-09-17T05:23:45.829Z,14.78
2018-09-17T05:27:10.257Z,14.73
2018-09-17T05:30:34.681Z,14.64
2018-09-17T05:33:59.139Z,14.57
2018-09-17T05:37:23.579Z,14.61
2018-09-17T05:40:48.016Z,14.57
2018-09-17T05:44:12.530Z,14.50
2018-09-17T05:47:36.997Z,14.68
2018-09-17T05:51:01.610Z,14.75
2018-09-17T05:54:26.087Z,14.73
2018-09-17T05:57:50.594Z,14.85
2018-09-17T06:01:14.980Z,15.01
2018-09-17T06:04:39.419Z,15.23
2018-09-17T06:08:05.165Z,15.34
2018-09-17T06:11:29.726Z,15.30
2018-09-17T06:14:54.203Z,15.41
2018-09-17T06:18:18.730Z,15.44
2018-09-17T06:21:43.133Z,15.49
2018-09-17T06:25:07.606Z,15.65
2018-09-17T06:28:32.692Z,15.88
2018-09-17T06:31:57.205Z,15.98
2018-09-17T06:35:21.622Z,16.09
2018-09-17T06:38:46.112Z,16.17
2018-09-17T06:42:10.541Z,16.34
2018-09-17T06:45:35.015Z,16.41
2018-09-17T06:48:59.461Z,16.49
2018-09-17T06:52:23.903Z,16.67
2018-09-17T06:55:48.310Z,16.84
2018-09-17T06:59:12.710Z,16.89
2018-09-17T07:02:37.124Z,16.88
2018-09-17T07:06:01.542Z,17.14
2018-09-17T07:09:25.989Z,17.38
2018-09-17T07:12:50.406Z,17.42
2018-09-17T07:16:14.828Z,17.47
2018-09-17T07:19:39.220Z,17.62
2018-09-17T07:23:03.677Z,17.79
2018-09-17T07:26:28.128Z,17.91
2018-09-17T07:29:52.633Z,18.00
2018-09-17T07:33:17.090Z,18.07
2018-09-17T07:36:41.524Z,18.06
2018-09-17T07:40:05.941Z,18.32
2018-09-17T07:43:30.396Z,18.38
2018-09-17T07:46:54.844Z,18.60
2018-09-17T07:50:19.283Z,18.76
2018-09-17T07:53:43.767Z,19.00
2018-09-17T07:57:08.229Z,19.16
2018-09-17T08:00:32.678Z,19.31
2018-09-17T08:03:57.126Z,19.50
2018-09-17T08:07:21.599Z,19.83
2018-09-17T08:10:46.006Z,19.70
2018-09-17T08:14:10.473Z,19.88
2018-09-17T08:17:34.925Z,20.13
2018-09-17T08:20:59.378Z,20.36
2018-09-17T08:24:23.830Z,20.59
2018-09-17T08:27:48.277Z,20.46
2018-09-17T08:31:12.700Z,20.72
2018-09-17T08:34:37.139Z,20.84
2018-09-17T08:38:01.628Z,21.22
2018-09-17T08:41:26.161Z,21.15
2018-09-17T08:44:50.598Z,21.26
2018-09-17T08:48:15.034Z,21.62
2018-09-17T08:51:39.501Z,20.93
2018-09-17T08:55:09.060Z,21.38
2018-09-17T08:58:39.848Z,21.50
2018-09-17T09:02:09.314Z,21.60
2018-09-17T09:05:34.819Z,21.77
2018-09-17T09:08:59.229Z,22.20
2018-09-17T09:12:30.710Z,22.53
2018-09-17T09:15:55.166Z,22.66
2018-09-17T09:19:19.561Z,22.74
2018-09-17T09:22:43.960Z,22.91
2018-09-17T09:26:08.401Z,22.76
2018-09-17T09:29:32.877Z,23.35
2018-09-17T09:32:57.381Z,23.19
2018-09-17T09:36:21.799Z,23.65
2018-09-17T09:39:46.234Z,24.06
2018-09-17T09:43:10.648Z,24.25
2018-09-17T09:46:35.071Z,24.74
2018-09-17T09:49:59.444Z,25.78
2018-09-17T09:53:23.844Z,26.37
2018-09-17T09:56:48.279Z,27.14
2018-09-17T10:00:17.878Z,29.10
2018-09-17T10:03:44.146Z,29.69
2018-09-17T10:07:08.563Z,30.36
2018-09-17T10:10:38.008Z,32.48
2018-09-17T10:14:07.449Z,33.44
2018-09-17T10:17:37.031Z,33.26
2018-09-17T10:21:01.428Z,33.17
2018-09-17T10:24:25.854Z,34.29
2018-09-17T10:27:50.303Z,34.98
2018-09-17T10:31:14.873Z,35.89
2018-09-17T10:34:39.300Z,33.94
2018-09-17T10:38:03.708Z,36.17
2018-09-17T10:41:28.117Z,36.16
2018-09-17T10:44:52.574Z,36.02
2018-09-17T10:48:17.013Z,36.65
2018-09-17T10:51:41.468Z,36.01
2018-09-17T10:55:05.899Z,37.55
2018-09-17T10:58:30.358Z,37.33
2018-09-17T11:01:54.764Z,35.69
2018-09-17T11:05:19.210Z,36.03
2018-09-17T11:08:46.620Z,35.27
2018-09-17T11:12:11.076Z,34.81
2018-09-17T11:15:40.641Z,34.83
2018-09-17T11:19:05.207Z,34.26
2018-09-17T11:22:29.638Z,34.35
2018-09-17T11:25:54.098Z,34.40
2018-09-17T11:29:18.619Z,34.56
2018-09-17T11:32:43.044Z,34.49
2018-09-17T11:36:07.584Z,35.33
2018-09-17T11:39:32.106Z,35.29
2018-09-17T11:42:56.555Z,34.18
2018-09-17T11:46:20.970Z,35.19
2018-09-17T11:49:45.381Z,34.36
2018-09-17T11:53:09.917Z,34.30
2018-09-17T11:56:34.463Z,34.52
2018-09-17T11:59:58.884Z,36.01
2018-09-17T12:03:28.501Z,36.21
2018-09-17T12:06:58.128Z,36.29
2018-09-17T12:10:22.566Z,35.61
2018-09-17T12:13:47.043Z,37.08
2018-09-17T12:17:11.466Z,37.24
2018-09-17T12:20:35.951Z,37.43
2018-09-17T12:24:00.421Z,35.82
2018-09-17T12:27:25.026Z,36.85
2018-09-17T12:30:55.773Z,38.20
2018-09-17T12:34:20.225Z,39.33
2018-09-17T12:37:44.632Z,40.78
2018-09-17T12:41:09.072Z,40.79
2018-09-17T12:44:33.558Z,38.32
2018-09-17T12:47:57.982Z,38.92
2018-09-17T12:51:22.401Z,40.60
2018-09-17T12:54:46.897Z,41.00
2018-09-17T12:58:11.338Z,42.24
2018-09-17T13:01:35.767Z,42.27
2018-09-17T13:05:00.261Z,41.41
2018-09-17T13:08:24.683Z,39.06
2018-09-17T13:11:49.199Z,39.21
2018-09-17T13:15:13.578Z,39.01
2018-09-17T13:18:38.144Z,38.13
2018-09-17T13:22:02.688Z,38.81
2018-09-17T13:25:29.797Z,36.99
2018-09-17T13:28:54.407Z,35.72
2018-09-17T13:32:18.820Z,36.28
2018-09-17T13:35:43.285Z,37.19
2018-09-17T13:39:08.304Z,36.71
2018-09-17T13:42:32.862Z,36.85
2018-09-17T13:45:59.366Z,37.21
2018-09-17T13:49:23.879Z,37.40
2018-09-17T13:52:48.461Z,37.40
2018-09-17T13:56:12.982Z,38.42
2018-09-17T13:59:37.500Z,37.15
2018-09-17T14:03:02.275Z,38.66
2018-09-17T14:06:26.737Z,38.85
2018-09-17T14:09:51.786Z,39.31
2018-09-17T14:13:16.273Z,40.01
2018-09-17T14:16:41.553Z,39.52
2018-09-17T14:20:06.074Z,39.79
2018-09-17T14:23:30.576Z,40.23
2018-09-17T14:26:55.871Z,40.16
2018-09-17T14:30:21.132Z,39.30
2018-09-17T14:33:45.563Z,39.22
2018-09-17T14:37:10.106Z,41.05
2018-09-17T14:40:34.571Z,39.77
2018-09-17T14:43:59.045Z,40.12
2018-09-17T14:47:23.471Z,40.51
2018-09-17T14:50:47.934Z,42.01
2018-09-17T14:54:12.406Z,41.23
2018-09-17T14:57:36.821Z,42.17
2018-09-17T15:01:01.326Z,41.03
2018-09-17T15:04:25.812Z,41.47
2018-09-17T15:07:50.384Z,41.44
2018-09-17T15:11:14.875Z,44.81
2018-09-17T15:14:39.336Z,42.95
2018-09-17T15:18:03.832Z,43.35
2018-09-17T15:21:28.348Z,45.10
2018-09-17T15:24:53.151Z,45.04
2018-09-17T15:28:17.787Z,44.72
2018-09-17T15:31:42.144Z,45.50
2018-09-17T15:35:06.845Z,46.07
2018-09-17T15:38:32.117Z,43.63
2018-09-17T15:41:56.671Z,42.86
2018-09-17T15:45:21.752Z,45.07
2018-09-17T15:48:46.410Z,46.86
2018-09-17T15:52:11.739Z,45.65
2018-09-17T15:55:36.460Z,44.48
2018-09-17T15:59:00.919Z,43.27
2018-09-17T16:02:25.429Z,43.20
2018-09-17T16:05:49.891Z,43.82
2018-09-17T16:09:14.297Z,44.06
2018-09-17T16:12:38.783Z,43.27
2018-09-17T16:16:03.223Z,42.50
2018-09-17T16:19:27.805Z,42.39
2018-09-17T16:22:52.236Z,41.80
2018-09-17T16:26:16.639Z,41.48
2018-09-17T16:29:41.174Z,39.44
2018-09-17T16:33:05.788Z,39.44
2018-09-17T16:36:30.460Z,39.77
2018-09-17T16:39:54.895Z,39.05
2018-09-17T16:43:19.709Z,37.91
2018-09-17T16:46:44.229Z,36.53
2018-09-17T16:50:09.883Z,35.25
2018-09-17T16:53:35.007Z,34.34
2018-09-17T16:57:00.307Z,33.33
2018-09-17T17:00:24.803Z,32.71
2018-09-17T17:03:49.732Z,32.24
2018-09-17T17:07:14.270Z,31.51
2018-09-17T17:10:39.627Z,31.07
2018-09-17T17:14:06.481Z,30.69
2018-09-17T17:17:31.273Z,30.05
2018-09-17T17:20:55.966Z,29.95
2018-09-17T17:24:22.330Z,29.88
2018-09-17T17:27:46.738Z,29.35
2018-09-17T17:31:11.205Z,28.65
2018-09-17T17:34:35.665Z,28.38
2018-09-17T17:38:00.116Z,28.25
2018-09-17T17:41:24.571Z,27.24
2018-09-17T17:44:48.981Z,27.41
2018-09-17T17:48:13.427Z,26.94
2018-09-17T17:51:38.009Z,26.72
2018-09-17T17:55:02.585Z,26.57
2018-09-17T17:58:27.157Z,26.28
2018-09-17T18:01:51.645Z,26.05
2018-09-17T18:05:16.105Z,25.86
2018-09-17T18:08:40.585Z,25.70
2018-09-17T18:12:05.134Z,25.39
2018-09-17T18:15:29.544Z,25.43
2018-09-17T18:18:54.715Z,25.12
2018-09-17T18:22:19.287Z,24.88
2018-09-17T18:25:43.814Z,24.97
2018-09-17T18:29:08.383Z,24.53
2018-09-17T18:32:33.098Z,24.26
2018-09-17T18:35:57.680Z,24.30
2018-09-17T18:39:22.239Z,24.09
2018-09-17T18:42:46.682Z,23.89
2018-09-17T18:46:11.795Z,23.60
2018-09-17T18:49:36.250Z,23.39
2018-09-17T18:53:02.199Z,23.35
2018-09-17T18:56:26.855Z,23.17
2018-09-17T18:59:52.410Z,22.92
2018-09-17T19:03:17.934Z,22.74
2018-09-17T19:06:43.221Z,22.83
2018-09-17T19:10:09.218Z,22.83
2018-09-17T19:13:34.071Z,22.65
2018-09-17T19:16:59.137Z,22.53
2018-09-17T19:20:24.828Z,22.32
2018-09-17T19:23:57.651Z,22.24
2018-09-17T19:27:27.639Z,22.17
2018-09-17T19:30:53.432Z,22.21
2018-09-17T19:34:19.427Z,22.17
2018-09-17T19:37:50.036Z,22.01
2018-09-17T19:41:15.285Z,21.87
2018-09-17T19:44:45.229Z,21.70
2018-09-17T19:48:10.191Z,21.44
2018-09-17T19:51:40.940Z,21.41
2018-09-17T19:55:05.969Z,21.42
2018-09-17T19:58:37.348Z,21.44
2018-09-17T20:02:02.598Z,21.39
2018-09-17T20:05:32.044Z,21.31
2018-09-17T20:08:56.756Z,21.14
2018-09-17T20:12:21.611Z,21.09
2018-09-17T20:15:46.124Z,20.89
2018-09-17T20:19:10.717Z,21.02
2018-09-17T20:22:35.835Z,20.95
2018-09-17T20:26:00.260Z,20.97
2018-09-17T20:29:24.815Z,20.91
2018-09-17T20:32:49.646Z,21.03
2018-09-17T20:36:14.164Z,20.78
2018-09-17T20:39:38.725Z,20.83
2018-09-17T20:43:03.164Z,21.03
2018-09-17T20:46:27.589Z,21.27
2018-09-17T20:49:52.042Z,21.37
2018-09-17T20:53:16.440Z,21.46
2018-09-17T20:56:40.902Z,21.65
2018-09-17T21:00:05.369Z,21.63
2018-09-17T21:03:29.837Z,21.84
2018-09-17T21:06:54.345Z,21.97
2018-09-17T21:10:18.684Z,21.97
2018-09-17T21:13:43.138Z,22.11
2018-09-17T21:17:07.594Z,22.07
2018-09-17T21:20:32.156Z,22.13
2018-09-17T21:23:56.566Z,21.78
2018-09-17T21:27:26.979Z,22.17
2018-09-17T21:30:51.421Z,22.35
2018-09-17T21:34:15.792Z,22.38
2018-09-17T21:37:40.343Z,22.53
2018-09-17T21:41:04.791Z,22.62
2018-09-17T21:44:29.254Z,22.64
2018-09-17T21:48:03.587Z,22.63
2018-09-17T21:51:28.024Z,22.38
2018-09-17T21:54:52.438Z,22.32
2018-09-17T21:58:17.051Z,21.89
2018-09-17T22:01:41.619Z,22.04
2018-09-17T22:05:07.171Z,21.50
2018-09-17T22:08:31.991Z,21.46
2018-09-17T22:11:56.470Z,21.59
2018-09-17T22:15:20.881Z,21.81
2018-09-17T22:18:45.267Z,21.76
2018-09-17T22:22:09.702Z,21.64
2018-09-17T22:25:34.219Z,21.52
2018-09-17T22:28:58.709Z,21.76
2018-09-17T22:32:23.121Z,21.80
2018-09-17T22:36:00.703Z,21.40
2018-09-17T22:39:25.089Z,21.55
2018-09-17T22:42:49.540Z,21.41
2018-09-17T22:46:14.004Z,21.28
2018-09-17T22:49:38.413Z,21.07
2018-09-17T22:53:02.882Z,21.05
2018-09-17T22:56:27.344Z,21.11
2018-09-17T22:59:51.752Z,21.27
2018-09-17T23:03:16.126Z,21.13
2018-09-17T23:06:40.556Z,21.19
2018-09-17T23:10:06.277Z,21.14
2018-09-17T23:13:30.768Z,21.41
2018-09-17T23:16:55.229Z,21.58
2018-09-17T23:20:19.669Z,21.59
2018-09-17T23:23:44.140Z,21.77
2018-09-17T23:27:08.559Z,21.88
2018-09-17T23:30:32.957Z,21.97
2018-09-17T23:33:57.390Z,21.78
2018-09-17T23:37:21.768Z,21.82
2018-09-17T23:40:46.243Z,21.76
2018-09-17T23:44:10.755Z,21.87
2018-09-17T23:47:35.221Z,21.94
2018-09-17T23:50:59.652Z,21.97
2018-09-17T23:54:24.124Z,21.99
2018-09-17T23:57:48.558Z,21.93
